createdAt,value
2017-12-21T00:01:25.185Z,102555.17
2017-12-21T00:03:52.189Z,102557.39
2017-12-21T00:06:22.006Z,102550.39
2017-12-21T00:08:48.993Z,102560.05
2017-12-21T00:11:15.994Z,102553.50
2017-12-21T00:13:42.908Z,102557.38
2017-12-21T00:16:09.832Z,102553.86
2017-12-21T00:18:36.816Z,102560.44
2017-12-21T00:21:04.472Z,102561.35
2017-12-21T00:23:32.084Z,102562.63
2017-12-21T00:25:59.063Z,102559.98
2017-12-21T00:28:25.931Z,102566.57
2017-12-21T00:30:53.034Z,102563.92
2017-12-21T00:33:20.817Z,102567.42
2017-12-21T00:35:47.696Z,102577.49
2017-12-21T00:38:15.930Z,102577.09
2017-12-21T00:40:42.925Z,102577.54
2017-12-21T00:43:10.729Z,102574.45
2017-12-21T00:45:37.605Z,102573.58
2017-12-21T00:48:04.492Z,102577.44
2017-12-21T00:50:32.219Z,102586.66
2017-12-21T00:52:59.171Z,102580.58
2017-12-21T00:55:26.028Z,102578.78
2017-12-21T00:57:52.894Z,102569.09
2017-12-21T01:00:19.784Z,102575.71
2017-12-21T01:02:46.700Z,102569.64
2017-12-21T01:05:13.559Z,102569.17
2017-12-21T01:07:40.454Z,102576.59
2017-12-21T01:10:07.331Z,102579.25
2017-12-21T01:12:34.187Z,102569.55
2017-12-21T01:15:01.100Z,102563.86
2017-12-21T01:17:27.970Z,102570.88
2017-12-21T01:19:54.836Z,102568.27
2017-12-21T01:22:21.717Z,102570.89
2017-12-21T01:24:48.564Z,102566.86
2017-12-21T01:27:15.406Z,102563.86
2017-12-21T01:29:42.990Z,102565.61
2017-12-21T01:32:09.878Z,102573.96
2017-12-21T01:34:36.761Z,102584.03
2017-12-21T01:37:03.661Z,102583.97
2017-12-21T01:39:31.333Z,102582.23
2017-12-21T01:41:58.197Z,102575.21
2017-12-21T01:44:25.094Z,102570.45
2017-12-21T01:46:52.058Z,102569.14
2017-12-21T01:49:18.937Z,102566.01
2017-12-21T01:51:45.863Z,102566.91
2017-12-21T01:54:13.513Z,102562.98
2017-12-21T01:56:40.424Z,102564.73
2017-12-21T01:59:07.385Z,102561.62
2017-12-21T02:01:34.282Z,102556.77
2017-12-21T02:04:01.261Z,102553.70
2017-12-21T02:06:28.179Z,102562.50
2017-12-21T02:08:56.617Z,102566.88
2017-12-21T02:11:24.491Z,102561.16
2017-12-21T02:13:51.447Z,102560.67
2017-12-21T02:16:18.413Z,102547.10
2017-12-21T02:18:45.258Z,102553.25
2017-12-21T02:21:12.264Z,102550.17
2017-12-21T02:23:39.297Z,102550.23
2017-12-21T02:50:40.998Z,102548.41
2017-12-21T02:53:07.930Z,102547.09
2017-12-21T03:13:35.689Z,102560.68
2017-12-21T03:16:02.656Z,102558.45
2017-12-21T03:18:29.556Z,102555.89
2017-12-21T03:20:56.409Z,102550.20
2017-12-21T03:23:23.295Z,102539.66
2017-12-21T03:25:50.916Z,102544.08
2017-12-21T03:28:18.536Z,102540.52
2017-12-21T03:30:45.433Z,102543.61
2017-12-21T03:33:12.345Z,102539.64
2017-12-21T03:35:39.189Z,102534.86
2017-12-21T03:38:06.108Z,102540.98
2017-12-21T03:40:33.693Z,102536.64
2017-12-21T03:43:00.564Z,102532.67
2017-12-21T03:45:27.440Z,102535.23
2017-12-21T03:47:54.288Z,102530.89
2017-12-21T03:50:21.162Z,102525.63
2017-12-21T03:52:48.031Z,102522.12
2017-12-21T03:55:14.922Z,102520.34
2017-12-21T03:57:41.842Z,102521.24
2017-12-21T04:00:08.751Z,102517.32
2017-12-21T04:02:35.636Z,102517.73
2017-12-21T04:05:02.511Z,102506.30
2017-12-21T04:07:30.142Z,102501.97
2017-12-21T04:09:56.966Z,102505.04
2017-12-21T04:12:23.905Z,102497.15
2017-12-21T04:14:51.496Z,102493.63
2017-12-21T04:17:18.372Z,102492.76
2017-12-21T04:19:45.288Z,102497.58
2017-12-21T04:22:12.117Z,102493.60
2017-12-21T04:24:38.963Z,102491.91
2017-12-21T04:27:06.592Z,102502.88
2017-12-21T04:29:33.488Z,102495.88
2017-12-21T04:32:00.327Z,102498.04
2017-12-21T04:34:27.252Z,102501.14
2017-12-21T04:36:54.306Z,102502.45
2017-12-21T04:39:21.221Z,102502.91
2017-12-21T04:41:48.894Z,102499.80
2017-12-21T04:44:15.749Z,102503.77
2017-12-21T04:46:42.637Z,102505.55
2017-12-21T04:49:09.477Z,102507.25
2017-12-21T04:51:36.375Z,102498.07
2017-12-21T04:54:03.248Z,102500.67
2017-12-21T04:56:30.202Z,102503.36
2017-12-21T04:58:57.064Z,102496.77
2017-12-21T05:01:23.962Z,102494.12
2017-12-21T05:03:50.931Z,102488.86
2017-12-21T05:06:17.859Z,102484.91
2017-12-21T05:08:44.762Z,102474.41
2017-12-21T05:11:15.163Z,102476.60
2017-12-21T05:13:44.122Z,102476.08
2017-12-21T05:16:11.088Z,102481.41
2017-12-21T05:18:49.823Z,102483.54
2017-12-21T05:27:22.821Z,102471.73
2017-12-21T05:29:50.458Z,102476.98
2017-12-21T05:32:17.251Z,102478.75
2017-12-21T05:34:44.105Z,102480.50
2017-12-21T05:37:14.229Z,102484.94
2017-12-21T05:39:41.070Z,102480.52
2017-12-21T05:42:07.935Z,102484.88
2017-12-21T05:44:34.884Z,102484.91
2017-12-21T05:47:01.841Z,102479.67
2017-12-21T05:49:28.851Z,102474.41
2017-12-21T05:51:56.309Z,102480.50
2017-12-21T05:54:23.941Z,102476.13
2017-12-21T05:56:50.812Z,102472.17
2017-12-21T05:59:17.783Z,102475.67
2017-12-21T06:01:44.705Z,102468.66
2017-12-21T06:04:11.630Z,102470.90
2017-12-21T06:06:38.550Z,102472.14
2017-12-21T06:09:05.361Z,102478.31
2017-12-21T06:11:33.027Z,102476.11
2017-12-21T06:13:59.886Z,102470.41
2017-12-21T06:16:26.739Z,102471.29
2017-12-21T06:18:53.600Z,102475.64
2017-12-21T06:21:20.483Z,102476.96
2017-12-21T06:23:47.322Z,102478.27
2017-12-21T06:26:14.170Z,102477.41
2017-12-21T06:28:41.081Z,102477.86
2017-12-21T06:31:08.679Z,102475.19
2017-12-21T06:33:35.567Z,102478.72
2017-12-21T06:36:02.540Z,102478.28
2017-12-21T06:38:29.426Z,102481.37
2017-12-21T06:40:56.614Z,102478.27
2017-12-21T06:43:23.486Z,102479.57
2017-12-21T06:45:51.096Z,102476.55
2017-12-21T06:48:18.648Z,102475.20
2017-12-21T06:50:45.484Z,102472.58
2017-12-21T06:53:12.286Z,102471.70
2017-12-21T06:55:39.186Z,102474.36
2017-12-21T06:58:05.964Z,102479.57
2017-12-21T07:00:33.069Z,102479.59
2017-12-21T07:02:59.921Z,102482.23
2017-12-21T07:05:26.728Z,102480.50
2017-12-21T07:07:53.597Z,102486.12
2017-12-21T07:10:20.447Z,102478.70
2017-12-21T07:12:47.211Z,102480.48
2017-12-21T07:15:14.041Z,102480.87
2017-12-21T07:17:40.833Z,102483.05
2017-12-21T07:20:07.657Z,102487.01
2017-12-21T07:22:34.496Z,102487.88
2017-12-21T07:25:02.033Z,102493.17
2017-12-21T07:27:28.820Z,102492.73
2017-12-21T07:29:55.810Z,102490.08
2017-12-21T07:32:22.799Z,102485.25
2017-12-21T07:34:49.646Z,102494.03
2017-12-21T07:37:16.568Z,102490.98
2017-12-21T07:39:43.503Z,102489.20
2017-12-21T07:42:10.404Z,102489.66
2017-12-21T07:44:38.021Z,102495.36
2017-12-21T07:47:06.012Z,102498.88
2017-12-21T07:49:32.858Z,102499.72
2017-12-21T07:51:59.631Z,102499.73
2017-12-21T07:54:26.406Z,102503.23
2017-12-21T07:56:53.197Z,102508.94
2017-12-21T07:59:20.003Z,102513.30
2017-12-21T08:01:46.824Z,102520.73
2017-12-21T08:04:13.661Z,102524.30
2017-12-21T08:06:40.604Z,102514.64
2017-12-21T08:09:07.504Z,102514.61
2017-12-21T08:11:34.359Z,102513.33
2017-12-21T08:14:01.234Z,102520.78
2017-12-21T08:16:28.134Z,102512.87
2017-12-21T08:18:55.097Z,102515.50
2017-12-21T08:21:21.926Z,102518.09
2017-12-21T08:23:48.768Z,102513.73
2017-12-21T08:26:15.621Z,102511.05
2017-12-21T08:28:42.464Z,102510.63
2017-12-21T08:31:09.354Z,102503.58
2017-12-21T08:33:36.174Z,102505.34
2017-12-21T08:36:03.057Z,102508.38
2017-12-21T08:38:30.172Z,102503.13
2017-12-21T08:40:57.776Z,102514.44
2017-12-21T08:43:24.638Z,102509.67
2017-12-21T08:45:51.534Z,102503.51
2017-12-21T08:48:18.358Z,102508.33
2017-12-21T08:50:45.242Z,102493.80
2017-12-21T08:53:12.101Z,102499.55
2017-12-21T08:55:38.953Z,102512.66
2017-12-21T08:58:05.892Z,102524.52
2017-12-21T09:00:33.487Z,102513.97
2017-12-21T09:03:00.371Z,102512.67
2017-12-21T09:05:33.444Z,102517.81
2017-12-21T09:08:04.100Z,102517.87
2017-12-21T09:10:30.966Z,102520.50
2017-12-21T09:13:05.964Z,102516.55
2017-12-21T09:15:47.992Z,102514.80
2017-12-21T09:18:15.782Z,102517.81
2017-12-21T09:20:46.724Z,102507.31
2017-12-21T09:23:13.644Z,102504.70
2017-12-21T09:25:40.517Z,102502.46
2017-12-21T09:28:07.387Z,102498.07
2017-12-21T09:30:34.283Z,102495.84
2017-12-21T09:33:01.932Z,102508.11
2017-12-21T09:35:28.802Z,102510.33
2017-12-21T09:37:55.649Z,102508.96
2017-12-21T09:40:22.565Z,102514.69
2017-12-21T09:42:49.552Z,102520.81
2017-12-21T09:45:17.218Z,102519.91
2017-12-21T09:47:44.119Z,102524.73
2017-12-21T09:50:10.942Z,102527.81
2017-12-21T09:52:37.791Z,102522.54
2017-12-21T09:55:05.367Z,102526.96
2017-12-21T09:57:32.945Z,102529.09
2017-12-21T10:00:01.037Z,102529.15
2017-12-21T10:02:28.640Z,102528.66
2017-12-21T10:04:55.475Z,102531.73
2017-12-21T10:07:23.086Z,102527.34
2017-12-21T10:09:49.904Z,102529.52
2017-12-21T10:12:17.514Z,102529.09
2017-12-21T10:14:44.330Z,102526.91
2017-12-21T10:17:11.177Z,102519.86
2017-12-21T10:19:38.077Z,102519.88
2017-12-21T10:22:05.680Z,102524.63
2017-12-21T10:24:33.267Z,102514.16
2017-12-21T10:27:00.134Z,102511.52
2017-12-21T10:29:26.975Z,102507.10
2017-12-21T10:31:53.817Z,102500.49
2017-12-21T10:34:21.412Z,102504.41
2017-12-21T10:36:48.302Z,102500.93
2017-12-21T10:39:15.120Z,102497.83
2017-12-21T10:41:42.672Z,102498.21
2017-12-21T10:44:09.475Z,102490.78
2017-12-21T10:46:36.374Z,102494.31
2017-12-21T10:49:03.215Z,102489.88
2017-12-21T10:51:30.113Z,102489.41
2017-12-21T10:53:57.023Z,102494.61
2017-12-21T10:56:23.862Z,102491.52
2017-12-21T10:58:51.719Z,102495.49
2017-12-21T11:01:18.564Z,102491.08
2017-12-21T11:03:45.399Z,102494.59
2017-12-21T11:06:12.253Z,102490.64
2017-12-21T11:08:39.097Z,102494.53
2017-12-21T11:11:06.717Z,102492.30
2017-12-21T11:13:33.576Z,102490.98
2017-12-21T11:16:00.487Z,102487.94
2017-12-21T11:18:27.423Z,102483.12
2017-12-21T11:20:54.302Z,102488.33
2017-12-21T11:23:21.151Z,102484.81
2017-12-21T11:25:48.002Z,102481.72
2017-12-21T11:28:14.842Z,102472.93
2017-12-21T11:30:41.714Z,102476.03
2017-12-21T11:33:08.593Z,102465.97
2017-12-21T11:35:35.375Z,102466.81
2017-12-21T11:38:02.250Z,102469.45
2017-12-21T11:40:29.853Z,102465.03
2017-12-21T11:42:56.708Z,102459.66
2017-12-21T11:45:23.873Z,102458.79
2017-12-21T11:47:50.721Z,102453.05
2017-12-21T11:50:18.399Z,102453.92
2017-12-21T11:52:45.271Z,102453.05
2017-12-21T11:55:12.069Z,102449.47
2017-12-21T11:57:38.863Z,102451.70
2017-12-21T12:00:05.806Z,102461.70
2017-12-21T12:02:32.629Z,102458.54
2017-12-21T12:04:59.524Z,102456.50
2017-12-21T12:07:26.323Z,102448.16
2017-12-21T12:09:53.200Z,102448.97
2017-12-21T12:12:19.999Z,102444.05
2017-12-21T12:14:46.795Z,102447.59
2017-12-21T12:17:13.592Z,102446.68
2017-12-21T12:19:40.525Z,102446.74
2017-12-21T12:22:07.435Z,102446.77
2017-12-21T12:24:34.418Z,102442.73
2017-12-21T12:27:01.519Z,102445.36
2017-12-21T12:29:29.208Z,102447.02
2017-12-21T12:31:56.867Z,102448.47
2017-12-21T12:34:23.846Z,102441.88
2017-12-21T12:36:50.807Z,102443.20
2017-12-21T12:39:18.537Z,102435.70
2017-12-21T12:41:45.487Z,102432.59
2017-12-21T12:44:12.392Z,102435.66
2017-12-21T12:46:39.315Z,102434.38
2017-12-21T12:49:06.362Z,102433.50
2017-12-21T12:51:33.321Z,102432.63
2017-12-21T12:54:00.993Z,102431.71
2017-12-21T12:56:28.617Z,102441.75
2017-12-21T12:58:55.496Z,102429.89
2017-12-21T13:01:22.301Z,102425.56
2017-12-21T13:03:51.351Z,102422.55
2017-12-21T13:06:24.165Z,102427.22
2017-12-21T13:08:51.051Z,102423.67
2017-12-21T13:11:18.025Z,102415.77
2017-12-21T13:13:45.150Z,102408.91
2017-12-21T13:49:22.203Z,102428.06
2017-12-21T13:51:48.973Z,102422.39
2017-12-21T13:54:15.729Z,102408.77
2017-12-21T13:56:42.521Z,102393.43
2017-12-21T13:59:09.314Z,102392.45
2017-12-21T14:01:36.173Z,102402.25
2017-12-21T14:04:02.967Z,102397.34
2017-12-21T14:06:29.771Z,102403.02
2017-12-21T14:08:56.562Z,102391.23
2017-12-21T14:11:23.327Z,102393.06
2017-12-21T14:13:50.100Z,102391.20
2017-12-21T14:16:16.920Z,102391.64
2017-12-21T14:18:43.691Z,102395.12
2017-12-21T14:21:10.496Z,102401.70
2017-12-21T14:23:37.301Z,102414.72
2017-12-21T14:26:04.068Z,102409.95
2017-12-21T14:28:30.834Z,102415.66
2017-12-21T14:30:57.597Z,102422.22
2017-12-21T14:33:24.395Z,102423.50
2017-12-21T14:35:51.204Z,102433.23
2017-12-21T14:38:17.985Z,102436.72
2017-12-21T14:40:44.792Z,102432.73
2017-12-21T14:43:12.321Z,102422.19
2017-12-21T14:45:39.255Z,102423.98
2017-12-21T14:48:06.030Z,102423.53
2017-12-21T14:50:33.834Z,102420.42
2017-12-21T14:53:00.611Z,102430.94
2017-12-21T14:55:27.416Z,102442.36
2017-12-21T14:57:54.180Z,102442.39
2017-12-21T15:00:20.945Z,102448.52
2017-12-21T15:02:47.729Z,102448.52
2017-12-21T15:05:14.531Z,102448.55
2017-12-21T15:07:42.094Z,102454.67
2017-12-21T15:10:08.949Z,102457.30
2017-12-21T15:12:35.722Z,102451.59
2017-12-21T15:15:02.500Z,102454.70
2017-12-21T15:17:30.056Z,102452.00
2017-12-21T15:19:56.839Z,102453.79
2017-12-21T15:22:24.388Z,102464.91
2017-12-21T15:24:51.195Z,102459.47
2017-12-21T15:27:18.071Z,102459.77
2017-12-21T15:29:44.874Z,102458.59
2017-12-21T15:32:11.634Z,102461.66
2017-12-21T15:34:38.416Z,102459.50
2017-12-21T15:37:05.183Z,102458.52
2017-12-21T15:39:31.939Z,102465.25
2017-12-21T15:41:58.698Z,102462.10
2017-12-21T15:44:26.234Z,102466.97
2017-12-21T15:46:53.160Z,102463.83
2017-12-21T15:49:19.968Z,102472.92
2017-12-21T15:51:46.797Z,102464.53
2017-12-21T15:54:13.561Z,102469.47
2017-12-21T15:56:40.335Z,102473.80
2017-12-21T15:59:07.138Z,102478.16
2017-12-21T16:01:33.940Z,102488.67
2017-12-21T16:04:00.698Z,102491.95
2017-12-21T16:06:27.504Z,102491.07
2017-12-21T16:08:55.108Z,102490.19
2017-12-21T16:11:21.980Z,102485.80
2017-12-21T16:13:48.772Z,102493.20
2017-12-21T16:16:15.569Z,102490.56
2017-12-21T16:18:43.181Z,102493.70
2017-12-21T16:21:10.006Z,102498.10
2017-12-21T16:23:36.824Z,102498.20
2017-12-21T16:26:03.586Z,102493.27
2017-12-21T16:28:30.358Z,102488.53
2017-12-21T16:30:57.137Z,102487.22
2017-12-21T16:33:24.646Z,102499.55
2017-12-21T16:35:51.468Z,102489.95
2017-12-21T16:38:18.274Z,102498.27
2017-12-21T16:40:45.105Z,102500.02
2017-12-21T16:43:12.670Z,102515.87
2017-12-21T16:45:39.465Z,102508.34
2017-12-21T16:48:06.359Z,102520.27
2017-12-21T16:50:33.154Z,102511.44
2017-12-21T16:53:00.013Z,102522.08
2017-12-21T16:55:26.852Z,102515.42
2017-12-21T16:57:53.671Z,102509.25
2017-12-21T17:00:20.510Z,102523.31
2017-12-21T17:02:48.083Z,102523.81
2017-12-21T17:05:14.894Z,102518.47
2017-12-21T17:07:41.723Z,102521.11
2017-12-21T17:10:08.556Z,102521.11
2017-12-21T17:12:35.327Z,102521.14
2017-12-21T17:15:02.933Z,102525.97
2017-12-21T17:17:29.729Z,102518.84
2017-12-21T17:19:56.595Z,102526.76
2017-12-21T17:22:23.394Z,102524.19
2017-12-21T17:24:50.910Z,102532.97
2017-12-21T17:27:18.491Z,102532.97
2017-12-21T17:29:45.256Z,102544.39
2017-12-21T17:32:12.075Z,102545.27
2017-12-21T17:34:39.601Z,102545.74
2017-12-21T17:37:06.506Z,102541.76
2017-12-21T17:39:33.327Z,102540.41
2017-12-21T17:42:00.149Z,102542.58
2017-12-21T17:44:26.934Z,102541.73
2017-12-21T17:46:54.592Z,102538.21
2017-12-21T17:49:21.378Z,102534.67
2017-12-21T17:51:48.207Z,102540.85
2017-12-21T17:54:14.986Z,102541.76
2017-12-21T17:56:41.828Z,102540.34
2017-12-21T17:59:08.648Z,102543.89
2017-12-21T18:01:35.446Z,102540.91
2017-12-21T18:04:02.336Z,102538.21
2017-12-21T18:06:29.153Z,102536.42
2017-12-21T18:08:56.686Z,102535.14
2017-12-21T18:11:23.574Z,102525.88
2017-12-21T18:13:50.416Z,102527.20
2017-12-21T18:16:17.261Z,102535.17
2017-12-21T18:18:44.148Z,102534.70
2017-12-21T18:21:10.933Z,102527.27
2017-12-21T18:23:38.499Z,102526.76
2017-12-21T18:26:05.305Z,102529.42
2017-12-21T18:28:32.136Z,102525.13
2017-12-21T18:30:59.717Z,102535.61
2017-12-21T18:33:27.267Z,102530.78
2017-12-21T18:35:54.135Z,102535.17
2017-12-21T18:38:20.991Z,102539.97
2017-12-21T18:40:47.839Z,102535.58
2017-12-21T18:43:14.661Z,102527.70
2017-12-21T18:45:41.463Z,102530.75
2017-12-21T18:48:08.286Z,102535.58
2017-12-21T18:50:35.150Z,102538.72
2017-12-21T18:53:01.991Z,102535.67
2017-12-21T18:55:29.578Z,102538.27
2017-12-21T18:57:56.386Z,102544.02
2017-12-21T19:00:23.270Z,102540.88
2017-12-21T19:02:50.114Z,102543.05
2017-12-21T19:49:00.532Z,102555.47
2017-12-21T19:51:30.907Z,102557.64
2017-12-21T19:54:00.458Z,102551.95
2017-12-21T19:56:32.911Z,102556.81
2017-12-21T19:59:02.498Z,102556.34
2017-12-21T20:01:32.954Z,102559.02
2017-12-21T20:04:07.150Z,102546.71
2017-12-21T20:06:40.787Z,102546.74
2017-12-21T20:09:18.313Z,102541.03
2017-12-21T20:11:53.175Z,102550.70
2017-12-21T20:14:29.488Z,102547.15
2017-12-21T20:17:01.069Z,102548.47
2017-12-21T20:19:33.701Z,102553.36
2017-12-21T20:22:06.164Z,102547.12
2017-12-21T20:24:37.613Z,102550.64
2017-12-21T20:27:11.797Z,102549.76
2017-12-21T20:29:46.628Z,102544.95
2017-12-21T20:34:55.861Z,102548.06
2017-12-21T21:00:52.676Z,102539.45
2017-12-21T21:03:21.501Z,102534.18
2017-12-21T21:05:49.131Z,102536.84
2017-12-21T21:08:17.586Z,102538.59
2017-12-21T21:10:45.656Z,102531.19
2017-12-21T21:13:13.255Z,102534.67
2017-12-21T21:15:42.746Z,102536.02
2017-12-21T21:18:11.808Z,102533.83
2017-12-21T21:20:40.773Z,102535.58
2017-12-21T21:23:10.118Z,102534.34
2017-12-21T21:25:37.365Z,102533.94
2017-12-21T21:28:05.205Z,102541.89
2017-12-21T21:30:34.259Z,102541.95
2017-12-21T21:33:02.033Z,102544.20
2017-12-21T21:35:30.192Z,102543.02
2017-12-21T21:37:59.903Z,102546.14
2017-12-21T21:40:26.853Z,102554.45
2017-12-21T21:42:55.491Z,102547.90
2017-12-21T21:45:23.229Z,102548.80
2017-12-21T21:47:50.123Z,102547.02
2017-12-21T21:50:16.983Z,102543.55
2017-12-21T21:52:43.860Z,102547.53
2017-12-21T21:55:10.745Z,102545.77
2017-12-21T21:57:38.757Z,102546.76
2017-12-21T22:00:05.893Z,102554.27
2017-12-21T22:02:32.871Z,102549.93
2017-12-21T22:05:01.088Z,102546.39
2017-12-21T22:07:29.316Z,102544.75
2017-12-21T22:09:56.404Z,102547.92
2017-12-21T22:12:24.166Z,102547.65
2017-12-21T22:14:51.857Z,102547.61
2017-12-21T22:17:18.789Z,102549.75
2017-12-21T22:19:46.688Z,102550.12
2017-12-21T22:22:13.573Z,102548.83
2017-12-21T22:24:40.500Z,102552.43
2017-12-21T22:27:07.440Z,102549.76
2017-12-21T22:29:34.563Z,102548.87
2017-12-21T22:32:01.546Z,102542.30
2017-12-21T22:34:28.456Z,102547.10
2017-12-21T22:36:55.348Z,102540.92
2017-12-21T22:39:24.505Z,102541.77
2017-12-21T22:41:51.467Z,102540.89
2017-12-21T22:44:18.369Z,102539.97
2017-12-21T22:46:45.224Z,102547.42
2017-12-21T22:49:12.081Z,102547.98
2017-12-21T22:51:39.677Z,102540.94
2017-12-21T22:54:06.560Z,102549.28
2017-12-21T22:56:33.429Z,102541.39
2017-12-21T22:59:00.369Z,102541.91
2017-12-21T23:01:27.233Z,102536.61
2017-12-21T23:03:56.119Z,102533.09
2017-12-21T23:06:24.131Z,102532.63
2017-12-21T23:08:51.150Z,102530.45
2017-12-21T23:11:18.696Z,102533.50
2017-12-21T23:13:45.629Z,102534.77
2017-12-21T23:16:13.644Z,102531.63
2017-12-21T23:18:40.519Z,102519.25
2017-12-21T23:21:07.514Z,102516.62
2017-12-21T23:23:35.186Z,102513.55
2017-12-21T23:26:02.939Z,102508.27
2017-12-21T23:28:29.826Z,102507.36
2017-12-21T23:30:56.678Z,102505.14
2017-12-21T23:33:23.970Z,102504.70
2017-12-21T23:35:50.797Z,102500.29
2017-12-21T23:38:18.164Z,102502.56
2017-12-21T23:40:45.141Z,102500.82
2017-12-21T23:43:12.019Z,102504.77
2017-12-21T23:45:38.918Z,102499.97
2017-12-21T23:48:05.818Z,102495.17
2017-12-21T23:50:32.742Z,102497.36
2017-12-21T23:52:59.625Z,102497.77
2017-12-21T23:55:26.518Z,102497.33
2017-12-21T23:57:54.239Z,102494.27
